メインページ
METAR-TAF:

METAR-TAF

空港 :

デトロイト, ミシガン州, アメリカ合衆国

緯度: 42-14-12N, 経度: 083-31-34W, 海抜: 218m

現時点の気象観測

当レポートは18分前の05:53(UTC)に作成
無風
気温 4°C
湿度 81%
気圧 1018 hPa
視程: 16.1km
晴天

METAR: KYIP 040553Z 00000KT 10SM CLR 04/01 A3005 RMK AO2 SLP176 T00440011 10133 20044 56007

時間: 02:11 (06:11 UTC)

予報

当レポートは51分前の05:20(UTC)に作成
予報は04日の 06時(UTC)から 05日の 06時(UTC)まで有効
北東の風 5kt
視程: 10km
晴天
04日の 1500時(UTC)から
南/南東の風 5kt
視程: 10km
高度7000ftの千切れ雲あり
04日の 2000時(UTC)から
南西の風 6kt
視程: 10km
高度4500ftの曇り
04日の 2300時(UTC)から
西/南西の風 6kt
視程: 10km
高度2500ftの曇り

TAF: KYIP 040520Z 0406/0506 04005KT P6SM SKC FM041500 16005KT P6SM BKN070 FM042000 23006KT P6SM OVC045 FM042300 24006KT P6SM OVC025

4,000以上の空港の気象観測と天気予報(METAR報とTAF報)

利用可能な観測所は地図上に黄色い丸と赤い丸で示す。

丸の上にカーソルを重ねると観測所名を参照できる。

次にクリックすると気象観測と天気予報を参照できる。

マップの切り替え:黒色「×」印の緑ボタンをクリックして拡大、「-」印の緑ボタンをクリックして縮小、緑色の三角印をクリックして隣りの地図に切り替え


METAR-TAF: